sensor_id;sensor_type;location;lat;lon;timestamp;P1;durP1;ratioP1;P2;durP2;ratioP2
23722;SDS011;12042;52.136;5.584;2023-02-02T06:11:20;24.10;;;4.55;;
23722;SDS011;12042;52.136;5.584;2023-02-02T06:13:56;24.08;;;4.40;;
23722;SDS011;12042;52.136;5.584;2023-02-02T06:16:30;24.63;;;4.90;;
23722;SDS011;12042;52.136;5.584;2023-02-02T06:18:59;17.77;;;4.07;;
23722;SDS011;12042;52.136;5.584;2023-02-02T06:21:27;16.85;;;4.00;;
23722;SDS011;12042;52.136;5.584;2023-02-02T06:23:57;20.02;;;4.70;;
23722;SDS011;12042;52.136;5.584;2023-02-02T06:26:23;17.55;;;4.80;;
23722;SDS011;12042;52.136;5.584;2023-02-02T06:28:51;24.48;;;4.78;;
23722;SDS011;12042;52.136;5.584;2023-02-02T06:31:17;24.88;;;4.47;;
23722;SDS011;12042;52.136;5.584;2023-02-02T06:33:45;19.10;;;4.50;;
23722;SDS011;12042;52.136;5.584;2023-02-02T06:39:05;16.50;;;4.38;;
23722;SDS011;12042;52.136;5.584;2023-02-02T06:41:32;23.85;;;4.10;;
23722;SDS011;12042;52.136;5.584;2023-02-02T06:43:58;24.15;;;4.05;;
23722;SDS011;12042;52.136;5.584;2023-02-02T06:46:25;18.55;;;4.72;;
23722;SDS011;12042;52.136;5.584;2023-02-02T06:48:50;24.10;;;5.13;;
23722;SDS011;12042;52.136;5.584;2023-02-02T06:51:16;21.15;;;4.00;;
23722;SDS011;12042;52.136;5.584;2023-02-02T06:53:42;21.42;;;4.95;;
23722;SDS011;12042;52.136;5.584;2023-02-02T06:56:08;24.23;;;4.93;;
23722;SDS011;12042;52.136;5.584;2023-02-02T06:58:37;21.63;;;5.13;;
23722;SDS011;12042;52.136;5.584;2023-02-02T07:01:07;22.67;;;4.68;;
23722;SDS011;12042;52.136;5.584;2023-02-02T07:03:34;21.65;;;5.30;;
23722;SDS011;12042;52.136;5.584;2023-02-02T07:06:13;34.13;;;5.68;;
23722;SDS011;12042;52.136;5.584;2023-02-02T07:08:43;21.02;;;4.72;;
23722;SDS011;12042;52.136;5.584;2023-02-02T07:11:10;24.70;;;5.63;;
23722;SDS011;12042;52.136;5.584;2023-02-02T07:13:36;20.90;;;4.80;;
23722;SDS011;12042;52.136;5.584;2023-02-02T07:16:04;26.48;;;5.30;;
23722;SDS011;12042;52.136;5.584;2023-02-02T07:18:31;22.00;;;5.10;;
23722;SDS011;12042;52.136;5.584;2023-02-02T07:20:59;24.27;;;5.35;;
23722;SDS011;12042;52.136;5.584;2023-02-02T07:23:26;25.13;;;5.63;;
23722;SDS011;12042;52.136;5.584;2023-02-02T07:26:05;22.23;;;5.63;;
23722;SDS011;12042;52.136;5.584;2023-02-02T07:28:32;21.38;;;5.05;;
23722;SDS011;12042;52.136;5.584;2023-02-02T07:30:58;27.08;;;5.65;;
23722;SDS011;12042;52.136;5.584;2023-02-02T07:33:24;24.75;;;5.75;;
23722;SDS011;12042;52.136;5.584;2023-02-02T07:35:50;20.52;;;5.80;;
23722;SDS011;12042;52.136;5.584;2023-02-02T07:38:15;27.38;;;5.95;;
23722;SDS011;12042;52.136;5.584;2023-02-02T07:40:42;22.83;;;5.72;;
23722;SDS011;12042;52.136;5.584;2023-02-02T07:43:09;23.30;;;6.15;;
23722;SDS011;12042;52.136;5.584;2023-02-02T07:45:34;25.52;;;5.88;;
23722;SDS011;12042;52.136;5.584;2023-02-02T07:48:00;27.67;;;6.85;;
23722;SDS011;12042;52.136;5.584;2023-02-02T07:50:26;31.15;;;6.78;;
23722;SDS011;12042;52.136;5.584;2023-02-02T07:52:53;26.60;;;6.53;;
23722;SDS011;12042;52.136;5.584;2023-02-02T07:55:19;27.75;;;6.32;;
23722;SDS011;12042;52.136;5.584;2023-02-02T07:57:45;25.77;;;6.28;;
23722;SDS011;12042;52.136;5.584;2023-02-02T08:00:11;26.50;;;6.43;;
23722;SDS011;12042;52.136;5.584;2023-02-02T08:02:37;26.83;;;6.10;;
23722;SDS011;12042;52.136;5.584;2023-02-02T08:05:03;22.38;;;5.90;;
23722;SDS011;12042;52.136;5.584;2023-02-02T08:07:34;23.85;;;5.30;;
23722;SDS011;12042;52.136;5.584;2023-02-02T08:10:00;22.02;;;5.13;;
23722;SDS011;12042;52.136;5.584;2023-02-02T08:12:26;23.80;;;5.95;;
23722;SDS011;12042;52.136;5.584;2023-02-02T08:14:52;29.75;;;5.82;;
23722;SDS011;12042;52.136;5.584;2023-02-02T08:17:18;23.60;;;4.82;;
23722;SDS011;12042;52.136;5.584;2023-02-02T08:19:43;20.55;;;4.68;;
23722;SDS011;12042;52.136;5.584;2023-02-02T08:22:09;21.15;;;5.38;;
23722;SDS011;12042;52.136;5.584;2023-02-02T08:24:34;25.63;;;5.30;;
23722;SDS011;12042;52.136;5.584;2023-02-02T08:27:06;18.38;;;5.28;;
23722;SDS011;12042;52.136;5.584;2023-02-02T08:29:32;21.63;;;5.03;;
23722;SDS011;12042;52.136;5.584;2023-02-02T08:31:59;23.83;;;5.25;;
23722;SDS011;12042;52.136;5.584;2023-02-02T08:34:25;22.52;;;4.88;;
23722;SDS011;12042;52.136;5.584;2023-02-02T08:36:51;23.38;;;5.18;;
23722;SDS011;12042;52.136;5.584;2023-02-02T08:39:17;15.90;;;4.20;;
23722;SDS011;12042;52.136;5.584;2023-02-02T08:41:43;19.70;;;4.70;;
23722;SDS011;12042;52.136;5.584;2023-02-02T08:44:10;22.48;;;4.50;;
23722;SDS011;12042;52.136;5.584;2023-02-02T08:46:41;17.85;;;4.38;;
23722;SDS011;12042;52.136;5.584;2023-02-02T08:49:10;20.20;;;4.88;;
23722;SDS011;12042;52.136;5.584;2023-02-02T08:51:57;20.42;;;5.60;;
23722;SDS011;12042;52.136;5.584;2023-02-02T08:54:22;25.42;;;4.95;;
23722;SDS011;12042;52.136;5.584;2023-02-02T08:56:48;21.85;;;4.60;;
23722;SDS011;12042;52.136;5.584;2023-02-02T08:59:13;23.65;;;4.80;;
23722;SDS011;12042;52.136;5.584;2023-02-02T09:01:39;19.50;;;4.47;;
23722;SDS011;12042;52.136;5.584;2023-02-02T09:04:05;23.13;;;4.28;;
23722;SDS011;12042;52.136;5.584;2023-02-02T09:06:34;24.13;;;4.32;;
23722;SDS011;12042;52.136;5.584;2023-02-02T09:09:02;20.92;;;4.45;;
23722;SDS011;12042;52.136;5.584;2023-02-02T09:11:30;21.75;;;4.20;;
23722;SDS011;12042;52.136;5.584;2023-02-02T09:13:56;16.00;;;4.15;;
23722;SDS011;12042;52.136;5.584;2023-02-02T09:16:23;23.48;;;4.40;;
23722;SDS011;12042;52.136;5.584;2023-02-02T09:18:50;18.92;;;4.40;;
23722;SDS011;12042;52.136;5.584;2023-02-02T09:21:16;23.35;;;4.40;;
23722;SDS011;12042;52.136;5.584;2023-02-02T09:23:43;21.27;;;4.13;;
23722;SDS011;12042;52.136;5.584;2023-02-02T09:26:19;21.60;;;4.20;;
23722;SDS011;12042;52.136;5.584;2023-02-02T09:28:51;15.52;;;4.30;;
23722;SDS011;12042;52.136;5.584;2023-02-02T09:31:20;22.90;;;4.60;;
23722;SDS011;12042;52.136;5.584;2023-02-02T09:33:46;19.63;;;4.25;;
23722;SDS011;12042;52.136;5.584;2023-02-02T09:36:12;19.50;;;3.88;;
23722;SDS011;12042;52.136;5.584;2023-02-02T09:38:40;18.52;;;3.67;;
23722;SDS011;12042;52.136;5.584;2023-02-02T09:41:13;19.38;;;4.18;;
23722;SDS011;12042;52.136;5.584;2023-02-02T09:47:12;19.17;;;4.25;;
23722;SDS011;12042;52.136;5.584;2023-02-02T09:53:24;20.35;;;3.95;;
23722;SDS011;12042;52.136;5.584;2023-02-02T09:56:04;21.05;;;4.85;;
23722;SDS011;12042;52.136;5.584;2023-02-02T09:58:53;22.20;;;4.30;;
23722;SDS011;12042;52.136;5.584;2023-02-02T10:01:25;21.02;;;4.63;;
23722;SDS011;12042;52.136;5.584;2023-02-02T10:04:12;17.77;;;5.13;;
23722;SDS011;12042;52.136;5.584;2023-02-02T10:07:21;23.35;;;4.50;;
23722;SDS011;12042;52.136;5.584;2023-02-02T10:13:00;20.88;;;4.85;;
23722;SDS011;12042;52.136;5.584;2023-02-02T10:26:54;16.63;;;4.15;;
23722;SDS011;12042;52.136;5.584;2023-02-02T10:48:46;19.58;;;4.30;;
23722;SDS011;12042;52.136;5.584;2023-02-02T10:51:23;19.40;;;4.75;;
23722;SDS011;12042;52.136;5.584;2023-02-02T10:53:51;17.63;;;5.63;;
23722;SDS011;12042;52.136;5.584;2023-02-02T10:56:20;18.15;;;5.18;;
23722;SDS011;12042;52.136;5.584;2023-02-02T10:59:02;19.95;;;5.65;;
23722;SDS011;12042;52.136;5.584;2023-02-02T11:01:31;18.83;;;5.07;;
23722;SDS011;12042;52.136;5.584;2023-02-02T11:03:57;14.48;;;4.90;;
23722;SDS011;12042;52.136;5.584;2023-02-02T11:06:41;18.63;;;4.70;;
23722;SDS011;12042;52.136;5.584;2023-02-02T11:09:13;19.90;;;4.20;;
23722;SDS011;12042;52.136;5.584;2023-02-02T11:11:45;15.27;;;4.53;;
23722;SDS011;12042;52.136;5.584;2023-02-02T11:14:21;17.23;;;4.50;;
23722;SDS011;12042;52.136;5.584;2023-02-02T11:17:01;20.20;;;4.97;;
23722;SDS011;12042;52.136;5.584;2023-02-02T11:20:02;20.77;;;4.88;;
23722;SDS011;12042;52.136;5.584;2023-02-02T11:30:27;13.45;;;4.00;;
23722;SDS011;12042;52.136;5.584;2023-02-02T11:39:45;19.55;;;4.65;;
23722;SDS011;12042;52.136;5.584;2023-02-02T11:44:57;22.88;;;5.10;;
23722;SDS011;12042;52.136;5.584;2023-02-02T11:47:26;21.20;;;4.20;;
23722;SDS011;12042;52.136;5.584;2023-02-02T11:49:57;16.90;;;3.88;;
23722;SDS011;12042;52.136;5.584;2023-02-02T11:52:25;13.55;;;4.00;;
23722;SDS011;12042;52.136;5.584;2023-02-02T12:48:06;18.02;;;3.70;;
23722;SDS011;12042;52.136;5.584;2023-02-02T14:34:52;5.93;;;3.95;;
23722;SDS011;12042;52.136;5.584;2023-02-02T14:43:34;5.10;;;4.00;;
23722;SDS011;12042;52.136;5.584;2023-02-02T14:48:39;4.38;;;3.90;;
23722;SDS011;12042;52.136;5.584;2023-02-02T14:51:10;5.20;;;3.53;;
23722;SDS011;12042;52.136;5.584;2023-02-02T14:53:38;5.60;;;3.42;;
23722;SDS011;12042;52.136;5.584;2023-02-02T14:56:16;3.60;;;3.25;;
23722;SDS011;12042;52.136;5.584;2023-02-02T15:06:26;3.35;;;3.05;;
23722;SDS011;12042;52.136;5.584;2023-02-02T15:14:35;3.58;;;3.28;;
23722;SDS011;12042;52.136;5.584;2023-02-02T15:19:45;4.55;;;4.07;;
23722;SDS011;12042;52.136;5.584;2023-02-02T15:22:31;4.75;;;4.45;;
23722;SDS011;12042;52.136;5.584;2023-02-02T15:25:17;4.60;;;4.20;;
23722;SDS011;12042;52.136;5.584;2023-02-02T15:28:09;6.38;;;5.55;;
23722;SDS011;12042;52.136;5.584;2023-02-02T15:30:35;6.07;;;5.15;;
23722;SDS011;12042;52.136;5.584;2023-02-02T15:33:14;5.53;;;4.93;;
23722;SDS011;12042;52.136;5.584;2023-02-02T15:36:01;6.25;;;5.30;;
23722;SDS011;12042;52.136;5.584;2023-02-02T15:38:34;6.78;;;6.18;;
23722;SDS011;12042;52.136;5.584;2023-02-02T15:43:46;8.63;;;7.13;;
23722;SDS011;12042;52.136;5.584;2023-02-02T15:46:15;10.15;;;7.47;;
23722;SDS011;12042;52.136;5.584;2023-02-02T15:49:12;11.02;;;7.35;;
23722;SDS011;12042;52.136;5.584;2023-02-02T15:52:31;10.90;;;7.22;;
23722;SDS011;12042;52.136;5.584;2023-02-02T15:54:37;13.80;;;8.23;;
23722;SDS011;12042;52.136;5.584;2023-02-02T15:57:03;15.93;;;8.05;;
23722;SDS011;12042;52.136;5.584;2023-02-02T15:59:48;12.35;;;8.13;;
23722;SDS011;12042;52.136;5.584;2023-02-02T16:02:24;15.18;;;8.35;;
23722;SDS011;12042;52.136;5.584;2023-02-02T16:04:55;18.13;;;8.98;;
23722;SDS011;12042;52.136;5.584;2023-02-02T16:07:26;16.15;;;9.00;;
23722;SDS011;12042;52.136;5.584;2023-02-02T16:09:55;19.08;;;9.27;;
23722;SDS011;12042;52.136;5.584;2023-02-02T16:12:26;13.18;;;8.73;;
23722;SDS011;12042;52.136;5.584;2023-02-02T16:14:59;14.15;;;7.40;;
23722;SDS011;12042;52.136;5.584;2023-02-02T16:17:29;12.18;;;7.32;;
23722;SDS011;12042;52.136;5.584;2023-02-02T16:20:09;14.52;;;8.02;;
23722;SDS011;12042;52.136;5.584;2023-02-02T16:22:38;13.13;;;8.38;;
23722;SDS011;12042;52.136;5.584;2023-02-02T16:27:58;16.92;;;8.57;;
23722;SDS011;12042;52.136;5.584;2023-02-02T16:30:43;15.80;;;8.43;;
23722;SDS011;12042;52.136;5.584;2023-02-02T16:33:29;17.05;;;8.07;;
23722;SDS011;12042;52.136;5.584;2023-02-02T16:36:22;15.63;;;8.88;;
23722;SDS011;12042;52.136;5.584;2023-02-02T16:38:50;18.08;;;9.02;;
23722;SDS011;12042;52.136;5.584;2023-02-02T16:43:50;15.88;;;9.27;;
23722;SDS011;12042;52.136;5.584;2023-02-02T16:46:38;17.25;;;9.60;;
23722;SDS011;12042;52.136;5.584;2023-02-02T16:49:17;21.83;;;10.70;;
23722;SDS011;12042;52.136;5.584;2023-02-02T16:51:48;20.88;;;10.20;;
23722;SDS011;12042;52.136;5.584;2023-02-02T16:54:35;27.23;;;11.65;;
23722;SDS011;12042;52.136;5.584;2023-02-02T16:57:02;17.83;;;11.57;;
23722;SDS011;12042;52.136;5.584;2023-02-02T16:59:30;21.52;;;11.13;;
23722;SDS011;12042;52.136;5.584;2023-02-02T17:01:59;24.02;;;12.13;;
23722;SDS011;12042;52.136;5.584;2023-02-02T17:04:32;24.40;;;12.40;;
23722;SDS011;12042;52.136;5.584;2023-02-02T17:07:09;25.30;;;12.43;;
23722;SDS011;12042;52.136;5.584;2023-02-02T17:09:41;26.25;;;13.40;;
23722;SDS011;12042;52.136;5.584;2023-02-02T17:14:48;30.10;;;13.05;;
23722;SDS011;12042;52.136;5.584;2023-02-02T17:17:17;29.42;;;13.60;;
23722;SDS011;12042;52.136;5.584;2023-02-02T17:19:45;28.00;;;12.82;;
23722;SDS011;12042;52.136;5.584;2023-02-02T17:22:12;32.10;;;13.15;;
23722;SDS011;12042;52.136;5.584;2023-02-02T17:24:39;22.98;;;12.90;;
23722;SDS011;12042;52.136;5.584;2023-02-02T17:27:10;24.05;;;13.27;;
23722;SDS011;12042;52.136;5.584;2023-02-02T17:29:45;21.83;;;13.60;;
23722;SDS011;12042;52.136;5.584;2023-02-02T17:32:14;33.53;;;14.45;;
23722;SDS011;12042;52.136;5.584;2023-02-02T17:34:39;32.28;;;14.18;;
23722;SDS011;12042;52.136;5.584;2023-02-02T17:37:05;36.03;;;15.00;;
23722;SDS011;12042;52.136;5.584;2023-02-02T17:39:31;27.73;;;12.13;;
23722;SDS011;12042;52.136;5.584;2023-02-02T17:41:59;22.85;;;11.35;;
23722;SDS011;12042;52.136;5.584;2023-02-02T17:44:24;22.33;;;11.70;;
23722;SDS011;12042;52.136;5.584;2023-02-02T17:46:51;25.85;;;13.02;;
23722;SDS011;12042;52.136;5.584;2023-02-02T17:49:16;25.77;;;11.80;;
23722;SDS011;12042;52.136;5.584;2023-02-02T17:51:44;24.95;;;11.32;;
23722;SDS011;12042;52.136;5.584;2023-02-02T17:54:13;23.23;;;10.60;;
23722;SDS011;12042;52.136;5.584;2023-02-02T17:56:40;25.50;;;10.10;;
23722;SDS011;12042;52.136;5.584;2023-02-02T17:59:06;20.42;;;9.90;;
23722;SDS011;12042;52.136;5.584;2023-02-02T18:01:33;27.35;;;10.30;;
23722;SDS011;12042;52.136;5.584;2023-02-02T18:04:01;21.90;;;9.45;;
23722;SDS011;12042;52.136;5.584;2023-02-02T18:06:27;23.40;;;9.07;;
23722;SDS011;12042;52.136;5.584;2023-02-02T18:08:53;28.90;;;10.27;;
23722;SDS011;12042;52.136;5.584;2023-02-02T18:11:18;23.90;;;10.23;;
23722;SDS011;12042;52.136;5.584;2023-02-02T18:13:44;23.17;;;9.85;;
23722;SDS011;12042;52.136;5.584;2023-02-02T18:16:10;18.50;;;9.25;;
23722;SDS011;12042;52.136;5.584;2023-02-02T18:18:36;24.10;;;10.35;;
23722;SDS011;12042;52.136;5.584;2023-02-02T18:21:06;19.20;;;10.07;;
23722;SDS011;12042;52.136;5.584;2023-02-02T18:23:33;24.80;;;11.73;;
23722;SDS011;12042;52.136;5.584;2023-02-02T18:26:12;26.15;;;11.35;;
23722;SDS011;12042;52.136;5.584;2023-02-02T18:28:42;22.23;;;11.18;;
23722;SDS011;12042;52.136;5.584;2023-02-02T18:31:10;22.48;;;10.82;;
23722;SDS011;12042;52.136;5.584;2023-02-02T18:33:37;22.98;;;10.43;;
23722;SDS011;12042;52.136;5.584;2023-02-02T18:36:08;25.67;;;11.45;;
23722;SDS011;12042;52.136;5.584;2023-02-02T18:38:40;21.52;;;10.55;;
23722;SDS011;12042;52.136;5.584;2023-02-02T18:41:09;26.88;;;11.43;;
23722;SDS011;12042;52.136;5.584;2023-02-02T18:43:35;22.13;;;10.90;;
23722;SDS011;12042;52.136;5.584;2023-02-02T18:46:02;23.10;;;9.80;;
23722;SDS011;12042;52.136;5.584;2023-02-02T18:48:30;20.05;;;9.55;;
23722;SDS011;12042;52.136;5.584;2023-02-02T18:50:56;19.00;;;9.45;;
23722;SDS011;12042;52.136;5.584;2023-02-02T18:53:22;19.67;;;8.63;;
23722;SDS011;12042;52.136;5.584;2023-02-02T18:55:48;22.15;;;9.27;;
23722;SDS011;12042;52.136;5.584;2023-02-02T18:58:14;20.65;;;9.30;;
23722;SDS011;12042;52.136;5.584;2023-02-02T19:00:40;20.02;;;9.30;;
23722;SDS011;12042;52.136;5.584;2023-02-02T19:03:06;19.42;;;9.02;;
23722;SDS011;12042;52.136;5.584;2023-02-02T19:05:32;20.05;;;9.07;;
23722;SDS011;12042;52.136;5.584;2023-02-02T19:08:32;16.60;;;9.27;;
23722;SDS011;12042;52.136;5.584;2023-02-02T19:11:07;26.27;;;9.90;;
23722;SDS011;12042;52.136;5.584;2023-02-02T19:13:53;20.70;;;9.38;;
23722;SDS011;12042;52.136;5.584;2023-02-02T19:19:15;17.05;;;9.30;;
23722;SDS011;12042;52.136;5.584;2023-02-02T19:21:46;13.73;;;8.45;;
23722;SDS011;12042;52.136;5.584;2023-02-02T19:24:12;21.23;;;9.88;;
23722;SDS011;12042;52.136;5.584;2023-02-02T19:26:39;16.85;;;9.30;;
23722;SDS011;12042;52.136;5.584;2023-02-02T19:29:13;23.70;;;8.68;;
23722;SDS011;12042;52.136;5.584;2023-02-02T19:31:43;21.77;;;8.93;;
23722;SDS011;12042;52.136;5.584;2023-02-02T19:34:14;19.85;;;8.77;;
23722;SDS011;12042;52.136;5.584;2023-02-02T19:36:43;16.45;;;8.57;;
23722;SDS011;12042;52.136;5.584;2023-02-02T19:39:17;20.42;;;8.52;;
23722;SDS011;12042;52.136;5.584;2023-02-02T19:41:45;15.52;;;8.45;;
23722;SDS011;12042;52.136;5.584;2023-02-02T19:44:18;21.00;;;8.35;;
23722;SDS011;12042;52.136;5.584;2023-02-02T19:46:48;18.80;;;8.80;;
23722;SDS011;12042;52.136;5.584;2023-02-02T19:51:45;20.90;;;8.75;;
23722;SDS011;12042;52.136;5.584;2023-02-02T19:54:33;19.13;;;8.82;;
23722;SDS011;12042;52.136;5.584;2023-02-02T19:59:41;21.67;;;9.57;;
23722;SDS011;12042;52.136;5.584;2023-02-02T20:05:00;20.35;;;8.18;;
23722;SDS011;12042;52.136;5.584;2023-02-02T20:07:31;19.33;;;8.98;;
23722;SDS011;12042;52.136;5.584;2023-02-02T20:10:18;19.83;;;8.77;;
23722;SDS011;12042;52.136;5.584;2023-02-02T20:12:48;15.88;;;7.43;;
23722;SDS011;12042;52.136;5.584;2023-02-02T20:15:32;16.88;;;9.38;;
23722;SDS011;12042;52.136;5.584;2023-02-02T20:18:00;17.42;;;8.60;;
23722;SDS011;12042;52.136;5.584;2023-02-02T20:20:31;21.25;;;8.40;;
23722;SDS011;12042;52.136;5.584;2023-02-02T20:23:49;15.68;;;8.15;;
23722;SDS011;12042;52.136;5.584;2023-02-02T20:25:55;21.00;;;7.93;;
23722;SDS011;12042;52.136;5.584;2023-02-02T20:28:38;21.20;;;7.70;;
23722;SDS011;12042;52.136;5.584;2023-02-02T20:31:11;17.77;;;7.55;;
23722;SDS011;12042;52.136;5.584;2023-02-02T20:33:40;17.20;;;7.85;;
23722;SDS011;12042;52.136;5.584;2023-02-02T20:38:54;19.83;;;7.78;;
23722;SDS011;12042;52.136;5.584;2023-02-02T20:41:22;17.70;;;7.65;;
23722;SDS011;12042;52.136;5.584;2023-02-02T20:43:48;16.73;;;6.90;;
23722;SDS011;12042;52.136;5.584;2023-02-02T20:46:14;17.00;;;6.60;;
23722;SDS011;12042;52.136;5.584;2023-02-02T20:48:40;17.42;;;6.97;;
23722;SDS011;12042;52.136;5.584;2023-02-02T20:51:06;17.17;;;7.18;;
23722;SDS011;12042;52.136;5.584;2023-02-02T20:53:32;18.15;;;7.55;;
23722;SDS011;12042;52.136;5.584;2023-02-02T20:56:00;14.55;;;6.47;;
23722;SDS011;12042;52.136;5.584;2023-02-02T20:58:27;22.45;;;7.30;;
23722;SDS011;12042;52.136;5.584;2023-02-02T21:00:52;14.15;;;7.03;;
23722;SDS011;12042;52.136;5.584;2023-02-02T21:03:18;23.20;;;7.78;;
23722;SDS011;12042;52.136;5.584;2023-02-02T21:05:44;22.15;;;7.25;;
23722;SDS011;12042;52.136;5.584;2023-02-02T21:08:13;16.85;;;7.05;;
23722;SDS011;12042;52.136;5.584;2023-02-02T21:10:38;13.98;;;6.82;;
23722;SDS011;12042;52.136;5.584;2023-02-02T21:13:05;18.15;;;6.97;;
23722;SDS011;12042;52.136;5.584;2023-02-02T21:15:31;14.25;;;6.68;;
23722;SDS011;12042;52.136;5.584;2023-02-02T21:17:57;15.52;;;6.75;;
23722;SDS011;12042;52.136;5.584;2023-02-02T21:20:22;17.00;;;6.68;;
23722;SDS011;12042;52.136;5.584;2023-02-02T21:22:48;14.05;;;6.72;;
23722;SDS011;12042;52.136;5.584;2023-02-02T21:25:14;15.63;;;6.60;;
23722;SDS011;12042;52.136;5.584;2023-02-02T21:27:40;17.38;;;6.95;;
23722;SDS011;12042;52.136;5.584;2023-02-02T21:30:09;17.92;;;7.40;;
23722;SDS011;12042;52.136;5.584;2023-02-02T21:32:48;13.55;;;6.90;;
23722;SDS011;12042;52.136;5.584;2023-02-02T21:35:14;22.35;;;7.70;;
23722;SDS011;12042;52.136;5.584;2023-02-02T21:37:40;17.77;;;6.70;;
23722;SDS011;12042;52.136;5.584;2023-02-02T21:40:12;14.82;;;6.70;;
23722;SDS011;12042;52.136;5.584;2023-02-02T21:42:40;16.33;;;6.40;;
23722;SDS011;12042;52.136;5.584;2023-02-02T21:47:53;21.15;;;6.70;;
23722;SDS011;12042;52.136;5.584;2023-02-02T21:50:25;16.75;;;6.40;;
23722;SDS011;12042;52.136;5.584;2023-02-02T21:52:54;16.02;;;6.38;;
23722;SDS011;12042;52.136;5.584;2023-02-02T21:55:40;18.40;;;6.80;;
23722;SDS011;12042;52.136;5.584;2023-02-02T21:58:22;14.38;;;5.53;;
23722;SDS011;12042;52.136;5.584;2023-02-02T22:00:57;16.23;;;5.50;;
23722;SDS011;12042;52.136;5.584;2023-02-02T22:03:38;11.85;;;5.85;;
23722;SDS011;12042;52.136;5.584;2023-02-02T22:06:12;14.27;;;5.47;;
23722;SDS011;12042;52.136;5.584;2023-02-02T22:08:47;15.80;;;5.13;;
23722;SDS011;12042;52.136;5.584;2023-02-02T22:13:53;19.58;;;5.05;;
23722;SDS011;12042;52.136;5.584;2023-02-02T22:16:36;19.35;;;5.20;;
23722;SDS011;12042;52.136;5.584;2023-02-02T22:19:41;12.95;;;5.78;;
23722;SDS011;12042;52.136;5.584;2023-02-02T22:24:39;13.05;;;4.30;;
23722;SDS011;12042;52.136;5.584;2023-02-02T22:27:23;18.17;;;4.55;;
23722;SDS011;12042;52.136;5.584;2023-02-02T22:30:02;11.30;;;4.40;;
23722;SDS011;12042;52.136;5.584;2023-02-02T22:32:43;10.10;;;4.18;;
23722;SDS011;12042;52.136;5.584;2023-02-02T22:35:08;14.98;;;4.18;;
23722;SDS011;12042;52.136;5.584;2023-02-02T22:37:34;15.18;;;3.67;;
23722;SDS011;12042;52.136;5.584;2023-02-02T22:40:00;18.25;;;4.35;;
23722;SDS011;12042;52.136;5.584;2023-02-02T22:42:31;9.70;;;3.38;;
23722;SDS011;12042;52.136;5.584;2023-02-02T22:44:56;14.55;;;3.58;;
23722;SDS011;12042;52.136;5.584;2023-02-02T22:47:22;11.13;;;3.28;;
23722;SDS011;12042;52.136;5.584;2023-02-02T22:49:47;12.63;;;3.40;;
23722;SDS011;12042;52.136;5.584;2023-02-02T22:52:13;14.05;;;3.63;;
23722;SDS011;12042;52.136;5.584;2023-02-02T22:54:38;14.63;;;4.00;;
23722;SDS011;12042;52.136;5.584;2023-02-02T22:57:04;11.38;;;3.80;;
23722;SDS011;12042;52.136;5.584;2023-02-02T22:59:30;14.38;;;3.88;;
23722;SDS011;12042;52.136;5.584;2023-02-02T23:01:55;13.15;;;4.03;;
